This is the latest recevied weather packets stored in our database for station/object IW1QLH-13. If no packets are shown the sender has not sent any weather packets the latest 10 day(s).
| Time | Temp. | Humidity | Pressure | Rain* | Wind** | Luminosity | Snow |
|---|---|---|---|---|---|---|---|
| 1777472672 | 22.78° C | 37% | 1006.9 hPa | - | - | 772 W/m² | - |
| 1777472040 | 22.78° C | 42% | 1007.2 hPa | - | - | 800 W/m² | - |
| 1777471408 | 22.78° C | 46% | 1007.3 hPa | - | - | 829 W/m² | - |
| 1777470772 | 22.78° C | 45% | 1007.4 hPa | - | - | 858 W/m² | - |
| 1777470138 | 22.78° C | 48% | 1007.5 hPa | - | - | 858 W/m² | - |
| 1777469504 | 22.78° C | 49% | 1007.6 hPa | - | - | 872 W/m² | - |
| 1777468872 | 23.89° C | 49% | 1007.5 hPa | - | - | 886 W/m² | - |
| 1777468240 | 22.78° C | 49% | 1007.6 hPa | - | - | 900 W/m² | - |
| 1777467607 | 22.78° C | 54% | 1007.7 hPa | - | - | 929 W/m² | - |
| 1777466976 | 22.78° C | 58% | 1007.9 hPa | - | - | 958 W/m² | - |
| 1777466346 | 22.78° C | 58% | 1007.9 hPa | - | - | 958 W/m² | - |
| 1777465714 | 22.78° C | 55% | 1007.7 hPa | - | - | 972 W/m² | - |
| 1777465080 | 23.89° C | 50% | 1007.6 hPa | - | - | 972 W/m² | - |
| 1777464448 | 22.78° C | 52% | 1007.6 hPa | - | - | 972 W/m² | - |
| 1777463812 | 22.78° C | 49% | 1007.6 hPa | - | - | 972 W/m² | - |
| 1777463179 | 22.78° C | 52% | 1007.6 hPa | - | - | 972 W/m² | - |
| 1777462547 | 22.78° C | 56% | 1007.7 hPa | - | - | 972 W/m² | - |
| 1777461915 | 23.89° C | 57% | 1007.7 hPa | - | - | 958 W/m² | - |
| 1777461283 | 22.78° C | 58% | 1007.7 hPa | - | - | 929 W/m² | - |
| 1777460651 | 23.89° C | 56% | 1007.7 hPa | - | - | 929 W/m² | - |
| 1777460016 | 22.78° C | 58% | 1007.7 hPa | - | - | 900 W/m² | - |
| 1777459384 | 23.89° C | 57% | 1007.7 hPa | - | - | 886 W/m² | - |
| 1777458743 | 23.89° C | 57% | 1007.7 hPa | - | - | 872 W/m² | - |
| 1777458111 | 22.78° C | 58% | 1007.8 hPa | - | - | 858 W/m² | - |
| 1777457477 | 22.78° C | 58% | 1007.8 hPa | - | - | 843 W/m² | - |
* Rain since midnight (hover to see other rain measurements)
** Current wind speed in m/s (hover to see current wind gust speed)